Time;durP1;ratioP1;P1;durP2;ratioP2;P2;SDS_P1;SDS_P2;PMS_P1;PMS_P2;Temp;Humidity;BMP_temperature;BMP_pressure;BME280_temperature;BME280_humidity;BME280_pressure;Samples;Min_cycle;Max_cycle;Signal;HPM_P1;HPM_P2
2021/11/11 00:00:45;;;;;;;26.07;9.33;;;;;;;;;;6140107;23;20201;-89
2021/11/11 00:03:50;;;;;;;21.93;9.90;;;;;;;;;;6125792;23;20617;-91
2021/11/11 00:07:00;;;;;;;24.70;9.70;;;;;;;;;;6142115;23;20240;-90
2021/11/11 00:10:07;;;;;;;21.77;9.60;;;;;;;;;;6139840;23;20201;-91
2021/11/11 00:13:14;;;;;;;24.70;9.93;;;;;;;;;;6141164;23;20238;-90
2021/11/11 00:16:22;;;;;;;24.50;10.63;;;;;;;;;;6142334;23;20217;-91
2021/11/11 00:19:27;;;;;;;24.13;10.80;;;;;;;;;;6125723;23;20161;-90
2021/11/11 00:22:34;;;;;;;30.57;11.83;;;;;;;;;;6141941;23;20242;-88
2021/11/11 00:25:41;;;;;;;31.17;11.73;;;;;;;;;;6127017;23;20165;-89
2021/11/11 00:28:49;;;;;;;27.80;10.60;;;;;;;;;;6124324;23;20165;-87
2021/11/11 00:31:55;;;;;;;32.80;11.73;;;;;;;;;;6124663;23;20169;-89
2021/11/11 00:35:01;;;;;;;28.10;11.17;;;;;;;;;;6124611;23;20168;-88
2021/11/11 00:38:09;;;;;;;27.23;10.93;;;;;;;;;;6125102;23;20186;-90
2021/11/11 00:41:15;;;;;;;26.53;10.70;;;;;;;;;;6124592;23;20725;-88
2021/11/11 00:44:22;;;;;;;27.30;10.77;;;;;;;;;;6124309;23;20186;-89
2021/11/11 00:47:28;;;;;;;25.10;11.13;;;;;;;;;;6124071;23;20150;-90
2021/11/11 00:50:34;;;;;;;24.37;10.07;;;;;;;;;;6124565;23;20257;-89
2021/11/11 00:53:43;;;;;;;21.57;9.93;;;;;;;;;;6126193;23;20240;-89
2021/11/11 00:56:50;;;;;;;24.77;10.70;;;;;;;;;;6124296;23;20165;-89
2021/11/11 00:59:56;;;;;;;22.87;9.87;;;;;;;;;;6109324;23;20153;-89
2021/11/11 01:03:02;;;;;;;24.13;10.20;;;;;;;;;;6124759;23;20209;-90
2021/11/11 01:06:09;;;;;;;35.43;11.50;;;;;;;;;;6125655;23;20182;-91
2021/11/11 01:09:16;;;;;;;24.93;10.47;;;;;;;;;;6126728;23;20221;-90
2021/11/11 01:12:21;;;;;;;52.60;10.60;;;;;;;;;;6127119;23;20177;-89
2021/11/11 01:15:30;;;;;;;32.67;10.80;;;;;;;;;;6124684;23;20169;-89
2021/11/11 01:18:40;;;;;;;28.63;11.30;;;;;;;;;;6143010;23;20150;-88
2021/11/11 01:21:55;;;;;;;23.53;9.93;;;;;;;;;;6127766;23;20220;-89
2021/11/11 01:25:08;;;;;;;41.30;11.83;;;;;;;;;;6128269;23;20169;-89
2021/11/11 01:28:13;;;;;;;36.90;10.67;;;;;;;;;;6125139;23;20169;-89
2021/11/11 01:31:19;;;;;;;36.37;10.77;;;;;;;;;;6124417;23;20173;-91
2021/11/11 01:34:27;;;;;;;36.67;11.13;;;;;;;;;;6125348;23;20213;-91
2021/11/11 01:37:36;;;;;;;20.70;10.17;;;;;;;;;;6125282;23;20177;-89
2021/11/11 01:40:44;;;;;;;82.33;11.80;;;;;;;;;;6125508;23;20266;-91
2021/11/11 01:43:50;;;;;;;27.03;10.50;;;;;;;;;;6139992;23;20177;-91
2021/11/11 01:46:56;;;;;;;68.53;11.43;;;;;;;;;;6124403;23;20270;-92
2021/11/11 01:50:04;;;;;;;34.40;9.70;;;;;;;;;;6122963;23;20169;-91
2021/11/11 01:53:11;;;;;;;27.63;10.03;;;;;;;;;;6123581;23;20272;-89
2021/11/11 01:56:22;;;;;;;19.50;9.07;;;;;;;;;;6125603;23;20282;-90
2021/11/11 01:59:28;;;;;;;47.87;10.00;;;;;;;;;;6142036;23;20286;-90
2021/11/11 02:02:39;;;;;;;22.53;9.47;;;;;;;;;;6124107;23;20216;-88
2021/11/11 02:05:45;;;;;;;27.07;9.47;;;;;;;;;;6142393;23;20173;-90
2021/11/11 02:08:57;;;;;;;28.13;10.13;;;;;;;;;;6140800;23;20168;-91
2021/11/11 02:12:15;;;;;;;27.37;10.27;;;;;;;;;;6124999;23;20233;-92
2021/11/11 02:15:29;;;;;;;36.20;11.50;;;;;;;;;;6124765;23;20157;-90
2021/11/11 02:18:37;;;;;;;52.07;10.47;;;;;;;;;;6123509;23;20161;-89
2021/11/11 02:21:45;;;;;;;49.30;11.00;;;;;;;;;;6123280;23;20173;-91
2021/11/11 02:24:51;;;;;;;45.10;10.90;;;;;;;;;;6124549;23;20161;-91
2021/11/11 02:27:59;;;;;;;23.50;9.97;;;;;;;;;;6123757;23;20260;-91
2021/11/11 02:31:05;;;;;;;19.30;9.40;;;;;;;;;;6122617;23;20153;-90
2021/11/11 02:34:20;;;;;;;22.90;9.00;;;;;;;;;;6141154;23;20161;-89
2021/11/11 02:37:33;;;;;;;25.70;10.07;;;;;;;;;;6139154;23;20153;-89
2021/11/11 02:40:54;;;;;;;26.40;10.33;;;;;;;;;;6123333;23;20170;-92
2021/11/11 02:44:00;;;;;;;50.90;12.40;;;;;;;;;;6121859;23;20221;-91
2021/11/11 02:47:06;;;;;;;48.73;12.03;;;;;;;;;;6139189;23;20156;-90
2021/11/11 02:50:17;;;;;;;31.87;11.53;;;;;;;;;;6121251;23;20169;-88
2021/11/11 02:53:23;;;;;;;31.40;11.40;;;;;;;;;;6124840;23;20197;-88
2021/11/11 02:56:30;;;;;;;29.33;10.37;;;;;;;;;;6141861;23;20184;-91
2021/11/11 02:59:37;;;;;;;41.40;11.13;;;;;;;;;;6123908;23;20488;-90
2021/11/11 03:02:46;;;;;;;30.10;10.80;;;;;;;;;;6122240;23;20278;-91
2021/11/11 03:05:53;;;;;;;97.07;12.30;;;;;;;;;;6123154;23;20177;-90
2021/11/11 03:09:00;;;;;;;27.07;9.97;;;;;;;;;;6122629;23;20279;-92
2021/11/11 03:12:07;;;;;;;22.97;10.13;;;;;;;;;;6139906;23;20286;-91
2021/11/11 03:15:15;;;;;;;26.87;10.27;;;;;;;;;;6120435;23;20233;-92
2021/11/11 03:18:21;;;;;;;45.13;11.47;;;;;;;;;;6121094;23;20169;-92
2021/11/11 03:21:26;;;;;;;32.17;11.00;;;;;;;;;;6122633;23;20197;-89
2021/11/11 03:24:34;;;;;;;28.27;10.17;;;;;;;;;;6137500;23;20173;-89
2021/11/11 03:27:41;;;;;;;21.37;9.83;;;;;;;;;;6121816;23;20241;-91
2021/11/11 03:30:47;;;;;;;81.60;12.20;;;;;;;;;;6121126;23;20173;-88
2021/11/11 03:33:54;;;;;;;22.57;9.93;;;;;;;;;;6121451;23;20177;-90
2021/11/11 03:37:00;;;;;;;40.97;10.50;;;;;;;;;;6138928;23;20172;-90
2021/11/11 03:40:11;;;;;;;36.17;11.20;;;;;;;;;;6121089;23;20168;-90
2021/11/11 03:43:18;;;;;;;29.20;9.87;;;;;;;;;;6121654;23;20177;-88
2021/11/11 03:46:29;;;;;;;29.57;10.33;;;;;;;;;;6138471;23;20173;-90
2021/11/11 03:49:35;;;;;;;29.87;11.07;;;;;;;;;;6122847;23;20172;-90
2021/11/11 03:52:42;;;;;;;30.27;10.40;;;;;;;;;;6140054;23;20222;-90
2021/11/11 03:55:50;;;;;;;41.60;10.47;;;;;;;;;;6122585;23;20173;-91
2021/11/11 03:58:59;;;;;;;37.50;10.10;;;;;;;;;;6122569;23;20229;-91
2021/11/11 04:02:13;;;;;;;31.90;10.27;;;;;;;;;;6139715;23;20213;-90
2021/11/11 04:05:19;;;;;;;39.93;10.87;;;;;;;;;;6140347;23;20210;-91
2021/11/11 04:08:32;;;;;;;25.97;10.40;;;;;;;;;;6139698;23;20169;-90
2021/11/11 04:11:42;;;;;;;33.63;10.70;;;;;;;;;;6138869;23;20188;-90
2021/11/11 04:14:51;;;;;;;29.13;11.27;;;;;;;;;;6136146;23;20177;-90
2021/11/11 04:17:56;;;;;;;28.83;11.23;;;;;;;;;;6137371;23;20153;-88
2021/11/11 04:21:03;;;;;;;26.83;11.27;;;;;;;;;;6156374;23;20168;-90
2021/11/11 04:24:10;;;;;;;37.83;10.80;;;;;;;;;;6138314;23;20205;-90
2021/11/11 04:27:26;;;;;;;27.83;11.00;;;;;;;;;;6140084;23;20209;-88
2021/11/11 04:30:33;;;;;;;31.97;11.20;;;;;;;;;;6139799;23;20174;-89
2021/11/11 04:33:42;;;;;;;24.37;10.47;;;;;;;;;;6140694;23;20174;-89
2021/11/11 04:40:43;;;;;;;24.80;10.80;;;;;;;;;;6139478;23;20213;-91
2021/11/11 04:43:55;;;;;;;20.83;10.03;;;;;;;;;;6137372;23;20181;-87
2021/11/11 04:50:42;;;;;;;27.53;10.67;;;;;;;;;;6138870;23;20170;-90
2021/11/11 05:04:07;;;;;;;32.53;11.50;;;;;;;;;;6138182;23;20248;-90
2021/11/11 05:07:12;;;;;;;26.50;10.80;;;;;;;;;;6137780;23;20536;-90
2021/11/11 05:10:18;;;;;;;33.63;10.90;;;;;;;;;;6139525;23;20160;-91
2021/11/11 05:13:25;;;;;;;29.17;11.47;;;;;;;;;;6137895;23;20188;-89
2021/11/11 05:16:34;;;;;;;35.30;11.43;;;;;;;;;;6139603;23;20301;-89
2021/11/11 05:19:44;;;;;;;32.77;11.53;;;;;;;;;;6139549;23;20172;-90
2021/11/11 05:22:51;;;;;;;28.03;10.83;;;;;;;;;;6136407;23;20189;-89
2021/11/11 05:25:57;;;;;;;48.93;12.67;;;;;;;;;;6140122;23;20168;-90
2021/11/11 05:29:03;;;;;;;57.00;15.70;;;;;;;;;;6142751;23;20217;-89
2021/11/11 05:32:12;;;;;;;39.07;13.13;;;;;;;;;;6140084;23;20501;-90
2021/11/11 05:35:24;;;;;;;37.83;13.40;;;;;;;;;;6138461;23;20289;-89
2021/11/11 05:38:29;;;;;;;40.27;13.50;;;;;;;;;;6139631;23;20170;-91
2021/11/11 05:41:37;;;;;;;44.97;15.43;;;;;;;;;;6126137;23;20165;-91
2021/11/11 05:44:46;;;;;;;39.37;13.13;;;;;;;;;;6139092;23;20181;-91
2021/11/11 05:47:56;;;;;;;36.47;13.90;;;;;;;;;;6139739;23;20514;-90
2021/11/11 05:51:02;;;;;;;33.87;13.07;;;;;;;;;;6140197;23;20190;-91
2021/11/11 05:54:10;;;;;;;56.40;15.50;;;;;;;;;;6140288;23;20169;-90
2021/11/11 05:57:20;;;;;;;44.50;14.60;;;;;;;;;;6141224;23;20268;-91
2021/11/11 06:00:28;;;;;;;56.10;17.03;;;;;;;;;;6141263;23;20601;-93
2021/11/11 06:07:09;;;;;;;71.43;16.27;;;;;;;;;;6138825;23;20170;-91
2021/11/11 06:10:16;;;;;;;47.00;15.93;;;;;;;;;;6141021;23;20213;-91
2021/11/11 06:13:23;;;;;;;45.93;15.83;;;;;;;;;;6140765;23;20198;-92
2021/11/11 06:16:32;;;;;;;34.17;14.87;;;;;;;;;;6142090;23;20185;-91
2021/11/11 06:19:44;;;;;;;33.20;14.83;;;;;;;;;;6143870;23;20169;-90
2021/11/11 06:22:51;;;;;;;38.53;15.93;;;;;;;;;;6141546;23;20214;-91
2021/11/11 06:26:02;;;;;;;36.87;14.37;;;;;;;;;;6141475;23;20744;-90
2021/11/11 06:29:10;;;;;;;33.97;14.23;;;;;;;;;;6140654;23;20214;-91
2021/11/11 06:32:16;;;;;;;38.07;14.67;;;;;;;;;;6142451;23;20161;-90
2021/11/11 06:35:36;;;;;;;35.80;14.47;;;;;;;;;;6140074;23;20170;-90
2021/11/11 06:38:42;;;;;;;41.43;14.43;;;;;;;;;;6141320;23;20225;-91
2021/11/11 06:41:48;;;;;;;42.37;14.80;;;;;;;;;;6141115;23;20493;-91
2021/11/11 06:45:11;;;;;;;37.67;14.57;;;;;;;;;;6141300;23;20230;-91
2021/11/11 06:48:28;;;;;;;38.63;14.77;;;;;;;;;;6158893;23;20169;-92
2021/11/11 06:51:59;;;;;;;39.63;15.00;;;;;;;;;;6145707;23;20162;-92
2021/11/11 06:55:14;;;;;;;37.47;14.77;;;;;;;;;;6143028;23;20319;-90
2021/11/11 07:02:15;;;;;;;46.10;16.53;;;;;;;;;;6142028;23;20157;-90
2021/11/11 07:05:35;;;;;;;42.80;16.23;;;;;;;;;;6138627;23;20173;-92
2021/11/11 07:12:58;;;;;;;46.30;15.50;;;;;;;;;;6158040;23;20270;-90
2021/11/11 07:16:15;;;;;;;43.73;15.63;;;;;;;;;;6143128;23;20164;-92
2021/11/11 07:23:00;;;;;;;43.50;17.83;;;;;;;;;;6144794;23;20181;-93
2021/11/11 07:26:09;;;;;;;38.03;15.33;;;;;;;;;;6144822;23;20257;-92
2021/11/11 07:29:14;;;;;;;41.33;15.93;;;;;;;;;;6142582;23;20173;-91
2021/11/11 07:32:23;;;;;;;41.67;15.93;;;;;;;;;;6142331;23;20179;-92
2021/11/11 07:35:40;;;;;;;50.43;17.73;;;;;;;;;;6142688;23;20157;-93
2021/11/11 07:38:46;;;;;;;44.93;17.13;;;;;;;;;;6144350;23;20228;-92
2021/11/11 07:41:51;;;;;;;43.70;16.37;;;;;;;;;;6145824;23;20242;-91
2021/11/11 07:44:59;;;;;;;45.80;16.77;;;;;;;;;;6143093;23;20246;-92
2021/11/11 07:48:10;;;;;;;44.87;16.77;;;;;;;;;;6141417;23;20256;-91
2021/11/11 07:51:16;;;;;;;42.60;16.43;;;;;;;;;;6143768;23;20173;-87
2021/11/11 07:54:24;;;;;;;43.50;16.23;;;;;;;;;;6141609;23;20646;-91
2021/11/11 07:57:32;;;;;;;44.73;17.03;;;;;;;;;;6141635;23;20241;-91
2021/11/11 08:00:39;;;;;;;46.50;17.97;;;;;;;;;;6142078;23;20292;-91
2021/11/11 08:03:52;;;;;;;52.33;17.87;;;;;;;;;;6141888;23;20264;-92
2021/11/11 08:06:58;;;;;;;52.07;18.70;;;;;;;;;;6139222;23;20198;-90
2021/11/11 08:10:04;;;;;;;52.27;19.50;;;;;;;;;;6139408;23;20161;-91
2021/11/11 08:13:09;;;;;;;53.63;18.57;;;;;;;;;;6138537;23;20209;-91
2021/11/11 08:16:15;;;;;;;47.47;19.13;;;;;;;;;;6138252;23;20189;-92
2021/11/11 08:19:23;;;;;;;49.07;18.93;;;;;;;;;;6137688;23;20181;-92
2021/11/11 08:22:29;;;;;;;47.27;18.70;;;;;;;;;;6137394;23;20245;-92
2021/11/11 08:25:34;;;;;;;47.80;17.27;;;;;;;;;;6139347;23;20156;-91
2021/11/11 08:28:39;;;;;;;48.00;17.93;;;;;;;;;;6138649;23;20213;-89
2021/11/11 08:31:46;;;;;;;43.03;17.90;;;;;;;;;;6137228;23;20173;-88
2021/11/11 08:35:01;;;;;;;48.60;18.13;;;;;;;;;;6139096;23;20193;-91
2021/11/11 08:38:09;;;;;;;47.13;18.17;;;;;;;;;;6142320;23;20250;-90
2021/11/11 08:41:18;;;;;;;47.83;17.97;;;;;;;;;;6138762;23;20336;-88
2021/11/11 08:44:24;;;;;;;45.57;17.03;;;;;;;;;;6139074;23;20265;-89
2021/11/11 23:25:29;;;;;;;49.20;17.97;;;;;;;;;;6213109;22;20234;-90
2021/11/11 23:32:07;;;;;;;52.37;18.67;;;;;;;;;;6215682;23;20302;-90
2021/11/11 23:35:13;;;;;;;47.63;18.43;;;;;;;;;;6218471;23;20187;-90
2021/11/11 23:38:18;;;;;;;49.70;18.07;;;;;;;;;;6216455;23;20167;-90
2021/11/11 23:41:27;;;;;;;42.90;16.83;;;;;;;;;;6214137;23;20223;-89
2021/11/11 23:44:45;;;;;;;43.60;15.77;;;;;;;;;;6213272;23;20247;-89
2021/11/11 23:48:03;;;;;;;50.60;18.63;;;;;;;;;;6211024;23;20674;-89
2021/11/11 23:51:20;;;;;;;46.93;17.27;;;;;;;;;;6213120;23;20160;-90
